Accueil
METAR-TAF:

METAR-TAF

Aéroports :

Siegen, Allemagne

latitude: 50-42-28N, longitude: 008-04-59E, altitude: 602 m

Observation

Le bulletin a été fait il y a 8 heures et 38 minutes, à 18:50 UTC
Vent 3 kt de nord-ouest
Température 17°C
Humidité 88%
Pression 1025 hPa
Visibilité 10 km ou plus
Nuages fragmentés à une hauteur de 3100 ft

METAR: EDGS 191850Z 31003KT 9999 BKN031 17/15 Q1025

Heure: 05:28 (03:28 UTC)

Prévision

Le bulletin a été fait il y a 10 heures et 28 minutes, à 17:00 UTC
Prévision valable du 19 à 18 UTC au 20 à 03 UTC
Vent 5 kt de nord-ouest
Visibilité 10 km ou plus
Nuages épars à une hauteur de 800 ft
Nuages fragmentés à une hauteur de 1500 ft
Temporairement
du 20 à 01 UTC au 20 à 03 UTC
Visibilité: 4000 m
brume

TAF: EDGS 191700Z 1918/2003 32005KT 9999 SCT008 BKN015 TEMPO 2001/2003 4000 BR

Observations et prévisions météorologiques de plus de 4000 aéroports (messages METAR et TAF).

Les stations disponibles sont représentées par des disques jaunes et rouges sur la carte.

Passer la souris dessus pour voir le nom de la station.

Cliquer dessus pour voir les observations et prévisions météorologiques.

Pour changer de carte: cliquez sur les boutons verts avec une croix noire pour zoomer, sur le bouton vert avec un tiret pour effectuer un zoom arrière, ou sur les flèches vertes pour les cartes adjacentes.


METAR-TAF: